sensor_id;sensor_type;location;lat;lon;timestamp;temperature;humidity
1778;DHT22;71547;50.146;8.174;2024-01-11T00:00:40;-6.30;99.90
1778;DHT22;71547;50.146;8.174;2024-01-11T00:03:09;-6.30;99.90
1778;DHT22;71547;50.146;8.174;2024-01-11T00:05:50;-6.40;99.90
1778;DHT22;71547;50.146;8.174;2024-01-11T00:08:19;-6.40;99.90
1778;DHT22;71547;50.146;8.174;2024-01-11T00:10:48;-6.40;99.90
1778;DHT22;71547;50.146;8.174;2024-01-11T00:13:25;-6.40;99.90
1778;DHT22;71547;50.146;8.174;2024-01-11T00:15:56;-6.40;99.90
1778;DHT22;71547;50.146;8.174;2024-01-11T00:18:26;-6.40;99.90
1778;DHT22;71547;50.146;8.174;2024-01-11T00:20:53;-6.50;99.90
1778;DHT22;71547;50.146;8.174;2024-01-11T00:23:39;-6.40;99.90
1778;DHT22;71547;50.146;8.174;2024-01-11T00:26:11;-6.40;99.90
1778;DHT22;71547;50.146;8.174;2024-01-11T00:28:46;-6.40;99.90
1778;DHT22;71547;50.146;8.174;2024-01-11T00:31:15;-6.50;99.90
1778;DHT22;71547;50.146;8.174;2024-01-11T00:33:43;-6.50;99.90
1778;DHT22;71547;50.146;8.174;2024-01-11T00:36:17;-6.40;99.90
1778;DHT22;71547;50.146;8.174;2024-01-11T00:38:49;-6.40;99.90
1778;DHT22;71547;50.146;8.174;2024-01-11T00:41:18;-6.40;99.90
1778;DHT22;71547;50.146;8.174;2024-01-11T00:43:51;-6.40;99.90
1778;DHT22;71547;50.146;8.174;2024-01-11T00:46:22;-6.50;99.90
1778;DHT22;71547;50.146;8.174;2024-01-11T00:48:57;-6.50;99.90
1778;DHT22;71547;50.146;8.174;2024-01-11T00:51:28;-6.50;99.90
1778;DHT22;71547;50.146;8.174;2024-01-11T00:53:59;-6.50;99.90
1778;DHT22;71547;50.146;8.174;2024-01-11T00:56:26;-6.50;99.90
1778;DHT22;71547;50.146;8.174;2024-01-11T00:58:53;-6.50;99.90
1778;DHT22;71547;50.146;8.174;2024-01-11T01:01:23;-6.50;99.90
1778;DHT22;71547;50.146;8.174;2024-01-11T01:03:52;-6.50;99.90
1778;DHT22;71547;50.146;8.174;2024-01-11T01:06:20;-6.50;99.90
1778;DHT22;71547;50.146;8.174;2024-01-11T01:09:00;-6.50;99.90
1778;DHT22;71547;50.146;8.174;2024-01-11T01:11:32;-6.50;99.90
1778;DHT22;71547;50.146;8.174;2024-01-11T01:14:01;-6.60;99.90
1778;DHT22;71547;50.146;8.174;2024-01-11T01:16:37;-6.60;99.90
1778;DHT22;71547;50.146;8.174;2024-01-11T01:19:07;-6.60;99.90
1778;DHT22;71547;50.146;8.174;2024-01-11T01:21:35;-6.60;99.90
1778;DHT22;71547;50.146;8.174;2024-01-11T01:24:07;-6.60;99.90
1778;DHT22;71547;50.146;8.174;2024-01-11T01:26:45;-6.70;99.90
1778;DHT22;71547;50.146;8.174;2024-01-11T01:29:28;-6.60;99.90
1778;DHT22;71547;50.146;8.174;2024-01-11T01:31:55;-6.70;99.90
1778;DHT22;71547;50.146;8.174;2024-01-11T01:34:23;-6.70;99.90
1778;DHT22;71547;50.146;8.174;2024-01-11T01:36:59;-6.70;99.90
1778;DHT22;71547;50.146;8.174;2024-01-11T01:39:31;-6.70;99.90
1778;DHT22;71547;50.146;8.174;2024-01-11T01:42:00;-6.70;99.90
1778;DHT22;71547;50.146;8.174;2024-01-11T01:44:27;-6.70;99.90
1778;DHT22;71547;50.146;8.174;2024-01-11T01:46:57;-6.70;99.90
1778;DHT22;71547;50.146;8.174;2024-01-11T01:49:44;-6.70;99.90
1778;DHT22;71547;50.146;8.174;2024-01-11T01:52:16;-6.70;99.90
1778;DHT22;71547;50.146;8.174;2024-01-11T01:54:46;-6.70;99.90
1778;DHT22;71547;50.146;8.174;2024-01-11T01:57:19;-6.70;99.90
1778;DHT22;71547;50.146;8.174;2024-01-11T01:59:50;-6.80;99.90
1778;DHT22;71547;50.146;8.174;2024-01-11T02:02:22;-6.80;99.90
1778;DHT22;71547;50.146;8.174;2024-01-11T02:04:52;-6.80;99.90
1778;DHT22;71547;50.146;8.174;2024-01-11T02:07:21;-6.80;99.90
1778;DHT22;71547;50.146;8.174;2024-01-11T02:09:59;-6.80;99.90
1778;DHT22;71547;50.146;8.174;2024-01-11T02:12:35;-6.90;99.90
1778;DHT22;71547;50.146;8.174;2024-01-11T02:15:09;-6.90;99.90
1778;DHT22;71547;50.146;8.174;2024-01-11T02:17:47;-6.90;99.90
1778;DHT22;71547;50.146;8.174;2024-01-11T02:20:17;-6.90;99.90
1778;DHT22;71547;50.146;8.174;2024-01-11T02:22:56;-6.90;99.90
1778;DHT22;71547;50.146;8.174;2024-01-11T02:25:36;-6.90;99.90
1778;DHT22;71547;50.146;8.174;2024-01-11T02:28:05;-6.90;99.90
1778;DHT22;71547;50.146;8.174;2024-01-11T02:30:41;-6.90;99.90
1778;DHT22;71547;50.146;8.174;2024-01-11T02:33:17;-6.90;99.90
1778;DHT22;71547;50.146;8.174;2024-01-11T02:35:48;-6.90;99.90
1778;DHT22;71547;50.146;8.174;2024-01-11T02:38:42;-6.90;99.90
1778;DHT22;71547;50.146;8.174;2024-01-11T02:41:36;-6.80;99.90
1778;DHT22;71547;50.146;8.174;2024-01-11T02:44:13;-6.90;99.90
1778;DHT22;71547;50.146;8.174;2024-01-11T02:47:08;-6.90;99.90
1778;DHT22;71547;50.146;8.174;2024-01-11T02:49:46;-7.00;99.90
1778;DHT22;71547;50.146;8.174;2024-01-11T02:52:18;-7.00;99.90
1778;DHT22;71547;50.146;8.174;2024-01-11T02:54:51;-7.00;99.90
1778;DHT22;71547;50.146;8.174;2024-01-11T02:57:27;-7.00;99.90
1778;DHT22;71547;50.146;8.174;2024-01-11T02:59:56;-7.00;99.90
1778;DHT22;71547;50.146;8.174;2024-01-11T03:02:28;-7.00;99.90
1778;DHT22;71547;50.146;8.174;2024-01-11T03:04:58;-7.00;99.90
1778;DHT22;71547;50.146;8.174;2024-01-11T03:07:26;-7.00;99.90
1778;DHT22;71547;50.146;8.174;2024-01-11T03:10:05;-7.10;99.90
1778;DHT22;71547;50.146;8.174;2024-01-11T03:12:45;-7.10;99.90
1778;DHT22;71547;50.146;8.174;2024-01-11T03:15:25;-7.00;99.90
1778;DHT22;71547;50.146;8.174;2024-01-11T03:18:00;-7.00;99.90
1778;DHT22;71547;50.146;8.174;2024-01-11T03:20:28;-7.00;99.90
1778;DHT22;71547;50.146;8.174;2024-01-11T03:22:57;-7.00;99.90
1778;DHT22;71547;50.146;8.174;2024-01-11T03:25:50;-7.00;99.90
1778;DHT22;71547;50.146;8.174;2024-01-11T03:28:27;-7.00;99.90
1778;DHT22;71547;50.146;8.174;2024-01-11T03:31:02;-7.10;99.90
1778;DHT22;71547;50.146;8.174;2024-01-11T03:33:40;-7.10;99.90
1778;DHT22;71547;50.146;8.174;2024-01-11T03:36:14;-7.10;99.90
1778;DHT22;71547;50.146;8.174;2024-01-11T03:38:49;-7.20;99.90
1778;DHT22;71547;50.146;8.174;2024-01-11T03:41:23;-7.20;99.90
1778;DHT22;71547;50.146;8.174;2024-01-11T03:43:52;-7.20;99.90
1778;DHT22;71547;50.146;8.174;2024-01-11T03:46:34;-7.20;99.90
1778;DHT22;71547;50.146;8.174;2024-01-11T03:49:11;-7.20;99.90
1778;DHT22;71547;50.146;8.174;2024-01-11T03:52:05;-7.20;99.90
1778;DHT22;71547;50.146;8.174;2024-01-11T03:54:38;-7.20;99.90
1778;DHT22;71547;50.146;8.174;2024-01-11T03:57:17;-7.30;99.90
1778;DHT22;71547;50.146;8.174;2024-01-11T04:00:06;-7.30;99.90
1778;DHT22;71547;50.146;8.174;2024-01-11T04:02:38;-7.30;99.90
1778;DHT22;71547;50.146;8.174;2024-01-11T04:05:13;-7.20;99.90
1778;DHT22;71547;50.146;8.174;2024-01-11T04:07:51;-7.20;99.90
1778;DHT22;71547;50.146;8.174;2024-01-11T04:10:26;-7.20;99.90
1778;DHT22;71547;50.146;8.174;2024-01-11T04:12:56;-7.20;99.90
1778;DHT22;71547;50.146;8.174;2024-01-11T04:15:36;-7.30;99.90
1778;DHT22;71547;50.146;8.174;2024-01-11T04:18:09;-7.30;99.90
1778;DHT22;71547;50.146;8.174;2024-01-11T04:20:40;-7.30;99.90
1778;DHT22;71547;50.146;8.174;2024-01-11T04:23:13;-7.30;99.90
1778;DHT22;71547;50.146;8.174;2024-01-11T04:25:46;-7.40;99.90
1778;DHT22;71547;50.146;8.174;2024-01-11T04:28:28;-7.40;99.90
1778;DHT22;71547;50.146;8.174;2024-01-11T04:31:00;-7.40;99.90
1778;DHT22;71547;50.146;8.174;2024-01-11T04:33:31;-7.40;99.90
1778;DHT22;71547;50.146;8.174;2024-01-11T04:36:13;-7.40;99.90
1778;DHT22;71547;50.146;8.174;2024-01-11T04:38:48;-7.40;99.90
1778;DHT22;71547;50.146;8.174;2024-01-11T04:41:26;-7.40;99.90
1778;DHT22;71547;50.146;8.174;2024-01-11T04:43:56;-7.40;99.90
1778;DHT22;71547;50.146;8.174;2024-01-11T04:46:43;-7.50;99.90
1778;DHT22;71547;50.146;8.174;2024-01-11T04:49:15;-7.50;99.90
1778;DHT22;71547;50.146;8.174;2024-01-11T04:51:42;-7.50;99.90
1778;DHT22;71547;50.146;8.174;2024-01-11T04:54:15;-7.50;99.90
1778;DHT22;71547;50.146;8.174;2024-01-11T04:57:05;-7.50;99.90
1778;DHT22;71547;50.146;8.174;2024-01-11T04:59:39;-7.50;99.90
1778;DHT22;71547;50.146;8.174;2024-01-11T05:02:17;-7.40;99.90
1778;DHT22;71547;50.146;8.174;2024-01-11T05:04:44;-7.40;99.90
1778;DHT22;71547;50.146;8.174;2024-01-11T05:07:11;-7.50;99.90
1778;DHT22;71547;50.146;8.174;2024-01-11T05:09:38;-7.50;99.90
1778;DHT22;71547;50.146;8.174;2024-01-11T05:12:07;-7.50;99.90
1778;DHT22;71547;50.146;8.174;2024-01-11T05:14:34;-7.50;99.90
1778;DHT22;71547;50.146;8.174;2024-01-11T05:17:01;-7.50;99.90
1778;DHT22;71547;50.146;8.174;2024-01-11T05:19:30;-7.60;99.90
1778;DHT22;71547;50.146;8.174;2024-01-11T05:21:58;-7.60;99.90
1778;DHT22;71547;50.146;8.174;2024-01-11T05:24:25;-7.60;99.90
1778;DHT22;71547;50.146;8.174;2024-01-11T05:26:52;-7.60;99.90
1778;DHT22;71547;50.146;8.174;2024-01-11T05:29:20;-7.60;99.90
1778;DHT22;71547;50.146;8.174;2024-01-11T05:31:48;-7.60;99.90
1778;DHT22;71547;50.146;8.174;2024-01-11T05:34:15;-7.70;99.90
1778;DHT22;71547;50.146;8.174;2024-01-11T05:36:44;-7.70;99.90
1778;DHT22;71547;50.146;8.174;2024-01-11T05:39:12;-7.70;99.90
1778;DHT22;71547;50.146;8.174;2024-01-11T05:41:39;-7.70;99.90
1778;DHT22;71547;50.146;8.174;2024-01-11T05:44:06;-7.70;99.90
1778;DHT22;71547;50.146;8.174;2024-01-11T05:46:33;-7.70;99.90
1778;DHT22;71547;50.146;8.174;2024-01-11T05:49:01;-7.70;99.90
1778;DHT22;71547;50.146;8.174;2024-01-11T05:51:28;-7.70;99.90
1778;DHT22;71547;50.146;8.174;2024-01-11T05:53:56;-7.70;99.90
1778;DHT22;71547;50.146;8.174;2024-01-11T05:56:24;-7.70;99.90
1778;DHT22;71547;50.146;8.174;2024-01-11T05:58:51;-7.70;99.90
1778;DHT22;71547;50.146;8.174;2024-01-11T06:01:18;-7.70;99.90
1778;DHT22;71547;50.146;8.174;2024-01-11T06:03:45;-7.70;99.90
1778;DHT22;71547;50.146;8.174;2024-01-11T06:06:12;-7.70;99.90
1778;DHT22;71547;50.146;8.174;2024-01-11T06:08:39;-7.70;99.90
1778;DHT22;71547;50.146;8.174;2024-01-11T06:11:10;-7.70;99.90
1778;DHT22;71547;50.146;8.174;2024-01-11T06:13:40;-7.70;99.90
1778;DHT22;71547;50.146;8.174;2024-01-11T06:16:07;-7.80;99.90
1778;DHT22;71547;50.146;8.174;2024-01-11T06:18:38;-7.80;99.90
1778;DHT22;71547;50.146;8.174;2024-01-11T06:21:06;-7.80;99.90
1778;DHT22;71547;50.146;8.174;2024-01-11T06:23:33;-7.80;99.90
1778;DHT22;71547;50.146;8.174;2024-01-11T06:26:00;-7.80;99.90
1778;DHT22;71547;50.146;8.174;2024-01-11T06:28:29;-7.80;99.90
1778;DHT22;71547;50.146;8.174;2024-01-11T06:30:59;-7.90;99.90
1778;DHT22;71547;50.146;8.174;2024-01-11T06:33:26;-7.90;99.90
1778;DHT22;71547;50.146;8.174;2024-01-11T06:35:54;-7.90;99.90
1778;DHT22;71547;50.146;8.174;2024-01-11T06:38:21;-8.00;99.90
1778;DHT22;71547;50.146;8.174;2024-01-11T06:40:49;-8.00;99.90
1778;DHT22;71547;50.146;8.174;2024-01-11T06:43:16;-8.00;99.90
1778;DHT22;71547;50.146;8.174;2024-01-11T06:45:44;-8.00;99.90
1778;DHT22;71547;50.146;8.174;2024-01-11T06:48:12;-8.00;99.90
1778;DHT22;71547;50.146;8.174;2024-01-11T06:50:39;-7.90;99.90
1778;DHT22;71547;50.146;8.174;2024-01-11T06:53:11;-8.00;99.90
1778;DHT22;71547;50.146;8.174;2024-01-11T06:55:38;-8.00;99.90
1778;DHT22;71547;50.146;8.174;2024-01-11T06:58:08;-8.00;99.90
1778;DHT22;71547;50.146;8.174;2024-01-11T07:00:35;-8.00;99.90
1778;DHT22;71547;50.146;8.174;2024-01-11T07:03:04;-8.00;99.90
1778;DHT22;71547;50.146;8.174;2024-01-11T07:05:32;-8.00;99.90
1778;DHT22;71547;50.146;8.174;2024-01-11T07:07:59;-8.00;99.90
1778;DHT22;71547;50.146;8.174;2024-01-11T07:10:26;-8.00;99.90
1778;DHT22;71547;50.146;8.174;2024-01-11T07:12:53;-8.00;99.90
1778;DHT22;71547;50.146;8.174;2024-01-11T07:15:21;-8.00;99.90
1778;DHT22;71547;50.146;8.174;2024-01-11T07:17:48;-8.00;99.90
1778;DHT22;71547;50.146;8.174;2024-01-11T07:20:17;-8.00;99.90
1778;DHT22;71547;50.146;8.174;2024-01-11T07:22:45;-8.00;99.90
1778;DHT22;71547;50.146;8.174;2024-01-11T07:25:12;-8.00;99.90
1778;DHT22;71547;50.146;8.174;2024-01-11T07:27:40;-8.00;99.90
1778;DHT22;71547;50.146;8.174;2024-01-11T07:30:25;-8.00;99.90
1778;DHT22;71547;50.146;8.174;2024-01-11T07:32:53;-8.10;99.90
1778;DHT22;71547;50.146;8.174;2024-01-11T07:35:22;-8.00;99.90
1778;DHT22;71547;50.146;8.174;2024-01-11T07:37:49;-8.10;99.90
1778;DHT22;71547;50.146;8.174;2024-01-11T07:40:16;-8.10;99.90
1778;DHT22;71547;50.146;8.174;2024-01-11T07:42:44;-8.10;99.90
1778;DHT22;71547;50.146;8.174;2024-01-11T07:45:12;-8.10;99.90
1778;DHT22;71547;50.146;8.174;2024-01-11T07:47:40;-8.00;99.90
1778;DHT22;71547;50.146;8.174;2024-01-11T07:50:08;-8.00;99.90
1778;DHT22;71547;50.146;8.174;2024-01-11T07:52:38;-8.00;99.90
1778;DHT22;71547;50.146;8.174;2024-01-11T07:55:09;-8.00;99.90
1778;DHT22;71547;50.146;8.174;2024-01-11T07:57:39;-8.00;99.90
1778;DHT22;71547;50.146;8.174;2024-01-11T08:00:08;-8.00;99.90
1778;DHT22;71547;50.146;8.174;2024-01-11T08:02:35;-7.90;99.90
1778;DHT22;71547;50.146;8.174;2024-01-11T08:05:05;-8.00;99.90
1778;DHT22;71547;50.146;8.174;2024-01-11T08:07:32;-7.90;99.90
1778;DHT22;71547;50.146;8.174;2024-01-11T08:10:01;-7.90;99.90
1778;DHT22;71547;50.146;8.174;2024-01-11T08:12:30;-7.90;99.90
1778;DHT22;71547;50.146;8.174;2024-01-11T08:14:57;-8.00;99.90
1778;DHT22;71547;50.146;8.174;2024-01-11T08:17:28;-8.00;99.90
1778;DHT22;71547;50.146;8.174;2024-01-11T08:19:55;-8.00;99.90
1778;DHT22;71547;50.146;8.174;2024-01-11T08:22:23;-7.90;99.90
1778;DHT22;71547;50.146;8.174;2024-01-11T08:24:53;-7.90;99.90
1778;DHT22;71547;50.146;8.174;2024-01-11T08:27:22;-7.90;99.90
1778;DHT22;71547;50.146;8.174;2024-01-11T08:29:49;-7.90;99.90
1778;DHT22;71547;50.146;8.174;2024-01-11T08:32:16;-7.80;99.90
1778;DHT22;71547;50.146;8.174;2024-01-11T08:34:57;-7.80;99.90
1778;DHT22;71547;50.146;8.174;2024-01-11T08:37:25;-7.70;99.90
1778;DHT22;71547;50.146;8.174;2024-01-11T08:39:52;-7.70;99.90
1778;DHT22;71547;50.146;8.174;2024-01-11T08:42:19;-7.70;99.90
1778;DHT22;71547;50.146;8.174;2024-01-11T08:44:48;-7.60;99.90
1778;DHT22;71547;50.146;8.174;2024-01-11T08:47:15;-7.70;99.90
1778;DHT22;71547;50.146;8.174;2024-01-11T08:49:42;-7.60;99.90
1778;DHT22;71547;50.146;8.174;2024-01-11T08:52:10;-7.60;99.90
1778;DHT22;71547;50.146;8.174;2024-01-11T08:54:37;-7.60;99.90
1778;DHT22;71547;50.146;8.174;2024-01-11T08:57:04;-7.50;99.90
1778;DHT22;71547;50.146;8.174;2024-01-11T08:59:31;-7.40;99.90
1778;DHT22;71547;50.146;8.174;2024-01-11T09:02:02;-7.30;99.90
1778;DHT22;71547;50.146;8.174;2024-01-11T09:04:41;-7.20;99.90
1778;DHT22;71547;50.146;8.174;2024-01-11T09:07:08;-7.10;99.90
1778;DHT22;71547;50.146;8.174;2024-01-11T09:09:37;-7.10;99.90
1778;DHT22;71547;50.146;8.174;2024-01-11T09:12:16;-7.00;99.90
1778;DHT22;71547;50.146;8.174;2024-01-11T09:14:43;-6.90;99.90
1778;DHT22;71547;50.146;8.174;2024-01-11T09:17:12;-6.80;99.90
1778;DHT22;71547;50.146;8.174;2024-01-11T09:19:39;-6.80;99.90
1778;DHT22;71547;50.146;8.174;2024-01-11T09:22:07;-6.70;99.90
1778;DHT22;71547;50.146;8.174;2024-01-11T09:24:37;-6.70;99.90
1778;DHT22;71547;50.146;8.174;2024-01-11T09:27:06;-6.60;99.90
1778;DHT22;71547;50.146;8.174;2024-01-11T09:29:33;-6.60;99.90
1778;DHT22;71547;50.146;8.174;2024-01-11T09:32:00;-6.50;99.90
1778;DHT22;71547;50.146;8.174;2024-01-11T09:34:29;-6.40;99.90
1778;DHT22;71547;50.146;8.174;2024-01-11T09:36:56;-6.40;99.90
1778;DHT22;71547;50.146;8.174;2024-01-11T09:39:26;-6.40;99.90
1778;DHT22;71547;50.146;8.174;2024-01-11T09:41:58;-6.30;99.90
1778;DHT22;71547;50.146;8.174;2024-01-11T09:44:26;-6.20;99.90
1778;DHT22;71547;50.146;8.174;2024-01-11T09:46:54;-6.10;99.90
1778;DHT22;71547;50.146;8.174;2024-01-11T09:49:22;-6.00;99.90
1778;DHT22;71547;50.146;8.174;2024-01-11T09:51:52;-5.90;99.90
1778;DHT22;71547;50.146;8.174;2024-01-11T09:54:23;-5.80;99.90
1778;DHT22;71547;50.146;8.174;2024-01-11T09:56:53;-5.70;99.90
1778;DHT22;71547;50.146;8.174;2024-01-11T09:59:21;-5.70;99.90
1778;DHT22;71547;50.146;8.174;2024-01-11T10:01:49;-5.60;99.90
1778;DHT22;71547;50.146;8.174;2024-01-11T10:04:16;-5.50;99.90
1778;DHT22;71547;50.146;8.174;2024-01-11T10:06:43;-5.30;99.90
1778;DHT22;71547;50.146;8.174;2024-01-11T10:09:13;-5.30;99.90
1778;DHT22;71547;50.146;8.174;2024-01-11T10:11:40;-5.20;99.90
1778;DHT22;71547;50.146;8.174;2024-01-11T10:14:08;-5.20;99.90
1778;DHT22;71547;50.146;8.174;2024-01-11T10:16:35;-5.10;99.90
1778;DHT22;71547;50.146;8.174;2024-01-11T10:19:02;-5.00;99.90
1778;DHT22;71547;50.146;8.174;2024-01-11T10:21:30;-4.90;99.90
1778;DHT22;71547;50.146;8.174;2024-01-11T10:23:58;-4.80;99.90
1778;DHT22;71547;50.146;8.174;2024-01-11T10:26:31;-4.70;99.90
1778;DHT22;71547;50.146;8.174;2024-01-11T10:28:59;-4.60;99.90
1778;DHT22;71547;50.146;8.174;2024-01-11T10:31:28;-4.50;99.90
1778;DHT22;71547;50.146;8.174;2024-01-11T10:33:56;-4.50;99.90
1778;DHT22;71547;50.146;8.174;2024-01-11T10:36:24;-4.40;99.90
1778;DHT22;71547;50.146;8.174;2024-01-11T10:38:53;-4.40;99.90
1778;DHT22;71547;50.146;8.174;2024-01-11T10:41:21;-4.30;99.90
1778;DHT22;71547;50.146;8.174;2024-01-11T10:43:50;-4.20;99.90
1778;DHT22;71547;50.146;8.174;2024-01-11T10:46:22;-4.20;99.90
1778;DHT22;71547;50.146;8.174;2024-01-11T10:48:56;-4.10;99.90
1778;DHT22;71547;50.146;8.174;2024-01-11T10:51:28;-4.00;99.90
1778;DHT22;71547;50.146;8.174;2024-01-11T10:53:59;-3.90;99.90
1778;DHT22;71547;50.146;8.174;2024-01-11T10:56:29;-3.90;99.90
1778;DHT22;71547;50.146;8.174;2024-01-11T10:58:58;-3.80;99.90
1778;DHT22;71547;50.146;8.174;2024-01-11T11:01:26;-3.70;99.90
1778;DHT22;71547;50.146;8.174;2024-01-11T11:04:09;-3.70;99.90
1778;DHT22;71547;50.146;8.174;2024-01-11T11:06:38;-3.60;99.90
1778;DHT22;71547;50.146;8.174;2024-01-11T11:09:06;-3.60;99.90
1778;DHT22;71547;50.146;8.174;2024-01-11T11:11:35;-3.60;99.90
1778;DHT22;71547;50.146;8.174;2024-01-11T11:14:05;-3.50;99.90
1778;DHT22;71547;50.146;8.174;2024-01-11T11:16:33;-3.40;99.90
1778;DHT22;71547;50.146;8.174;2024-01-11T11:19:00;-3.40;99.90
1778;DHT22;71547;50.146;8.174;2024-01-11T11:21:27;-3.30;99.90
1778;DHT22;71547;50.146;8.174;2024-01-11T11:23:55;-3.20;99.90
1778;DHT22;71547;50.146;8.174;2024-01-11T11:26:26;-3.20;99.90
1778;DHT22;71547;50.146;8.174;2024-01-11T11:28:54;-3.10;99.90
1778;DHT22;71547;50.146;8.174;2024-01-11T11:31:36;-3.10;99.90
1778;DHT22;71547;50.146;8.174;2024-01-11T11:34:04;-3.10;99.90
1778;DHT22;71547;50.146;8.174;2024-01-11T11:36:33;-3.00;99.90
1778;DHT22;71547;50.146;8.174;2024-01-11T11:39:01;-3.00;99.90
1778;DHT22;71547;50.146;8.174;2024-01-11T11:41:30;-2.90;99.90
1778;DHT22;71547;50.146;8.174;2024-01-11T11:44:02;-2.90;99.90
1778;DHT22;71547;50.146;8.174;2024-01-11T11:46:29;-2.80;99.90
1778;DHT22;71547;50.146;8.174;2024-01-11T11:48:59;-2.70;99.90
1778;DHT22;71547;50.146;8.174;2024-01-11T11:51:27;-2.60;99.90
1778;DHT22;71547;50.146;8.174;2024-01-11T11:53:55;-2.50;99.90
1778;DHT22;71547;50.146;8.174;2024-01-11T11:56:23;-2.50;99.90
1778;DHT22;71547;50.146;8.174;2024-01-11T11:58:52;-2.40;99.90
1778;DHT22;71547;50.146;8.174;2024-01-11T12:01:22;-2.40;99.90
1778;DHT22;71547;50.146;8.174;2024-01-11T12:03:50;-2.30;99.90
1778;DHT22;71547;50.146;8.174;2024-01-11T12:06:19;-2.20;99.90
1778;DHT22;71547;50.146;8.174;2024-01-11T12:08:52;-2.20;99.90
1778;DHT22;71547;50.146;8.174;2024-01-11T12:11:23;-2.10;99.90
1778;DHT22;71547;50.146;8.174;2024-01-11T12:13:51;-2.00;99.90
1778;DHT22;71547;50.146;8.174;2024-01-11T12:16:20;-2.00;99.90
1778;DHT22;71547;50.146;8.174;2024-01-11T12:18:48;-1.90;99.90
1778;DHT22;71547;50.146;8.174;2024-01-11T12:21:18;-1.80;99.90
1778;DHT22;71547;50.146;8.174;2024-01-11T12:23:46;-1.70;99.90
1778;DHT22;71547;50.146;8.174;2024-01-11T12:26:15;-1.70;99.90
1778;DHT22;71547;50.146;8.174;2024-01-11T12:28:49;-1.60;99.90
1778;DHT22;71547;50.146;8.174;2024-01-11T12:31:17;-1.50;99.90
1778;DHT22;71547;50.146;8.174;2024-01-11T12:33:47;-1.50;99.90
1778;DHT22;71547;50.146;8.174;2024-01-11T12:36:17;-1.40;99.90
1778;DHT22;71547;50.146;8.174;2024-01-11T12:38:48;-1.30;99.90
1778;DHT22;71547;50.146;8.174;2024-01-11T12:41:20;-1.20;99.90
1778;DHT22;71547;50.146;8.174;2024-01-11T12:43:48;-1.10;99.90
1778;DHT22;71547;50.146;8.174;2024-01-11T12:46:15;-1.10;99.90
1778;DHT22;71547;50.146;8.174;2024-01-11T12:48:44;-1.00;99.90
1778;DHT22;71547;50.146;8.174;2024-01-11T12:51:11;-1.00;99.90
1778;DHT22;71547;50.146;8.174;2024-01-11T12:53:48;-0.90;99.90
1778;DHT22;71547;50.146;8.174;2024-01-11T12:56:16;-0.90;99.90
1778;DHT22;71547;50.146;8.174;2024-01-11T12:58:44;-0.90;99.90
1778;DHT22;71547;50.146;8.174;2024-01-11T13:01:13;-0.90;99.90
1778;DHT22;71547;50.146;8.174;2024-01-11T13:03:45;-0.80;99.90
1778;DHT22;71547;50.146;8.174;2024-01-11T13:06:15;-0.80;99.90
1778;DHT22;71547;50.146;8.174;2024-01-11T13:08:43;-0.70;99.90
1778;DHT22;71547;50.146;8.174;2024-01-11T13:11:11;-0.70;99.90
1778;DHT22;71547;50.146;8.174;2024-01-11T13:13:41;-0.60;99.90
1778;DHT22;71547;50.146;8.174;2024-01-11T13:16:08;-0.60;99.90
1778;DHT22;71547;50.146;8.174;2024-01-11T13:18:39;-0.60;99.90
1778;DHT22;71547;50.146;8.174;2024-01-11T13:21:06;-0.50;99.90
1778;DHT22;71547;50.146;8.174;2024-01-11T13:23:33;-0.40;99.90
1778;DHT22;71547;50.146;8.174;2024-01-11T13:26:01;-0.40;99.90
1778;DHT22;71547;50.146;8.174;2024-01-11T13:28:31;-0.40;99.90
1778;DHT22;71547;50.146;8.174;2024-01-11T13:30:58;-0.40;99.90
1778;DHT22;71547;50.146;8.174;2024-01-11T13:33:25;-0.40;99.90
1778;DHT22;71547;50.146;8.174;2024-01-11T13:35:52;-0.30;99.90
1778;DHT22;71547;50.146;8.174;2024-01-11T13:38:20;-0.30;99.90
1778;DHT22;71547;50.146;8.174;2024-01-11T13:40:51;-0.30;99.90
1778;DHT22;71547;50.146;8.174;2024-01-11T13:43:19;-0.20;99.90
1778;DHT22;71547;50.146;8.174;2024-01-11T13:45:49;-0.20;99.90
1778;DHT22;71547;50.146;8.174;2024-01-11T13:48:16;-0.10;99.90
1778;DHT22;71547;50.146;8.174;2024-01-11T13:50:44;-0.20;99.90
1778;DHT22;71547;50.146;8.174;2024-01-11T13:53:11;-0.10;99.90
1778;DHT22;71547;50.146;8.174;2024-01-11T13:55:38;-0.10;99.90
1778;DHT22;71547;50.146;8.174;2024-01-11T13:58:07;0.00;99.90
1778;DHT22;71547;50.146;8.174;2024-01-11T14:00:35;0.00;99.90
1778;DHT22;71547;50.146;8.174;2024-01-11T14:03:04;0.00;99.90
1778;DHT22;71547;50.146;8.174;2024-01-11T14:05:33;0.00;99.90
1778;DHT22;71547;50.146;8.174;2024-01-11T14:08:00;0.10;99.90
1778;DHT22;71547;50.146;8.174;2024-01-11T14:10:28;0.10;99.90
1778;DHT22;71547;50.146;8.174;2024-01-11T14:12:56;0.10;99.90
1778;DHT22;71547;50.146;8.174;2024-01-11T14:15:23;0.10;99.90
1778;DHT22;71547;50.146;8.174;2024-01-11T14:17:53;0.10;99.90
1778;DHT22;71547;50.146;8.174;2024-01-11T14:20:21;0.20;99.90
1778;DHT22;71547;50.146;8.174;2024-01-11T14:22:50;0.20;99.90
1778;DHT22;71547;50.146;8.174;2024-01-11T14:25:18;0.30;99.90
1778;DHT22;71547;50.146;8.174;2024-01-11T14:27:47;0.30;99.90
1778;DHT22;71547;50.146;8.174;2024-01-11T14:30:15;0.20;99.90
1778;DHT22;71547;50.146;8.174;2024-01-11T14:32:43;0.20;99.90
1778;DHT22;71547;50.146;8.174;2024-01-11T14:35:10;0.20;99.90
1778;DHT22;71547;50.146;8.174;2024-01-11T14:37:39;0.20;99.90
1778;DHT22;71547;50.146;8.174;2024-01-11T14:40:08;0.30;99.90
1778;DHT22;71547;50.146;8.174;2024-01-11T14:42:39;0.30;99.90
1778;DHT22;71547;50.146;8.174;2024-01-11T14:45:08;0.30;99.90
1778;DHT22;71547;50.146;8.174;2024-01-11T14:47:36;0.30;99.90
1778;DHT22;71547;50.146;8.174;2024-01-11T14:50:05;0.30;99.90
1778;DHT22;71547;50.146;8.174;2024-01-11T14:52:38;0.20;99.90
1778;DHT22;71547;50.146;8.174;2024-01-11T14:55:07;0.20;99.90
1778;DHT22;71547;50.146;8.174;2024-01-11T14:57:36;0.20;99.90
1778;DHT22;71547;50.146;8.174;2024-01-11T15:00:05;0.10;99.90
1778;DHT22;71547;50.146;8.174;2024-01-11T15:02:35;0.00;99.90
1778;DHT22;71547;50.146;8.174;2024-01-11T15:05:03;-0.10;99.90
1778;DHT22;71547;50.146;8.174;2024-01-11T15:07:30;-0.10;99.90
1778;DHT22;71547;50.146;8.174;2024-01-11T15:09:59;-0.10;99.90
1778;DHT22;71547;50.146;8.174;2024-01-11T15:12:26;-0.20;99.90
1778;DHT22;71547;50.146;8.174;2024-01-11T15:14:53;-0.20;99.90
1778;DHT22;71547;50.146;8.174;2024-01-11T15:17:20;-0.20;99.90
1778;DHT22;71547;50.146;8.174;2024-01-11T15:19:48;-0.30;99.90
1778;DHT22;71547;50.146;8.174;2024-01-11T15:22:15;-0.20;99.90
1778;DHT22;71547;50.146;8.174;2024-01-11T15:24:42;-0.30;99.90
1778;DHT22;71547;50.146;8.174;2024-01-11T15:27:12;-0.30;99.90
1778;DHT22;71547;50.146;8.174;2024-01-11T15:29:40;-0.40;99.90
1778;DHT22;71547;50.146;8.174;2024-01-11T15:32:08;-0.40;99.90
1778;DHT22;71547;50.146;8.174;2024-01-11T15:34:37;-0.50;99.90
1778;DHT22;71547;50.146;8.174;2024-01-11T15:37:04;-0.50;99.90
1778;DHT22;71547;50.146;8.174;2024-01-11T15:39:31;-0.60;99.90
1778;DHT22;71547;50.146;8.174;2024-01-11T15:42:00;-0.60;99.90
1778;DHT22;71547;50.146;8.174;2024-01-11T15:44:31;-0.60;99.90
1778;DHT22;71547;50.146;8.174;2024-01-11T15:47:00;-0.70;99.90
1778;DHT22;71547;50.146;8.174;2024-01-11T15:49:28;-0.70;99.90
1778;DHT22;71547;50.146;8.174;2024-01-11T15:51:55;-0.70;99.90
1778;DHT22;71547;50.146;8.174;2024-01-11T15:54:23;-0.80;99.90
1778;DHT22;71547;50.146;8.174;2024-01-11T15:56:50;-0.80;99.90
1778;DHT22;71547;50.146;8.174;2024-01-11T15:59:18;-0.90;99.90
1778;DHT22;71547;50.146;8.174;2024-01-11T16:01:46;-0.90;99.90
1778;DHT22;71547;50.146;8.174;2024-01-11T16:04:29;-1.00;99.90
1778;DHT22;71547;50.146;8.174;2024-01-11T16:06:56;-1.00;99.90